createdAt,value
2018-11-22T12:17:14.128Z,91.01
2018-11-22T12:22:18.666Z,90.63
2018-11-22T12:27:23.127Z,90.01
2018-11-22T12:32:32.509Z,90.27
2018-11-22T12:37:43.334Z,90.46
2018-11-22T12:42:44.244Z,90.76
2018-11-22T12:47:48.845Z,89.90
2018-11-22T12:52:53.842Z,90.26
2018-11-22T13:03:14.959Z,90.94
2018-11-22T13:08:19.799Z,90.71
2018-11-22T13:13:24.507Z,91.00
2018-11-22T13:18:29.813Z,90.72
2018-11-22T13:23:39.630Z,91.22
2018-11-22T13:28:44.086Z,91.67
2018-11-22T13:33:48.576Z,92.11
2018-11-22T13:38:53.243Z,92.27
2018-11-22T13:43:57.873Z,91.63
2018-11-22T13:49:02.574Z,91.66
2018-11-22T13:54:12.336Z,92.02
2018-11-22T13:59:17.387Z,91.99
2018-11-22T14:04:22.169Z,91.83
2018-11-22T14:09:26.474Z,91.63
2018-11-22T14:14:31.759Z,93.08
2018-11-22T14:19:37.067Z,92.37
2018-11-22T14:24:41.728Z,90.27
2018-11-22T14:29:46.985Z,88.96
2018-11-22T14:34:51.783Z,90.20
2018-11-22T14:39:56.374Z,89.68
2018-11-22T14:45:00.905Z,90.90
2018-11-22T14:50:09.847Z,91.07
2018-11-22T14:55:14.567Z,92.34
2018-11-22T15:00:19.204Z,91.92
2018-11-22T15:05:23.830Z,92.02
2018-11-22T15:10:28.883Z,92.04
2018-11-22T15:15:33.609Z,92.43
2018-11-22T15:20:38.201Z,92.83
2018-11-22T15:25:43.419Z,92.83
2018-11-22T15:30:48.026Z,92.47
2018-11-22T15:35:53.289Z,92.62
2018-11-22T15:40:58.041Z,92.12
2018-11-22T15:46:03.007Z,93.11
2018-11-22T15:51:07.425Z,93.06
2018-11-22T15:56:11.779Z,93.09
2018-11-22T16:01:16.292Z,92.99
2018-11-22T16:06:21.367Z,93.31
2018-11-22T16:11:25.304Z,93.42
2018-11-22T16:16:29.815Z,93.56
2018-11-22T16:21:35.643Z,93.39
2018-11-22T16:26:39.988Z,92.89
2018-11-22T16:31:44.366Z,93.52
2018-11-22T16:36:51.217Z,93.23
2018-11-22T16:41:56.639Z,93.14
2018-11-22T16:47:00.952Z,93.01
2018-11-22T16:52:05.390Z,92.67
2018-11-22T16:57:14.736Z,93.03
2018-11-22T17:02:19.106Z,92.88
2018-11-22T17:07:23.655Z,93.39
2018-11-22T17:12:28.518Z,92.82
2018-11-22T17:17:33.028Z,93.38
2018-11-22T17:22:37.702Z,92.80
2018-11-22T17:27:42.975Z,93.38
2018-11-22T17:32:47.654Z,92.64
2018-11-22T17:37:52.653Z,92.53
2018-11-22T17:42:57.904Z,92.78
2018-11-22T17:48:02.570Z,93.16
2018-11-22T17:53:07.529Z,92.93
2018-11-22T17:58:12.180Z,93.33
2018-11-22T18:03:16.482Z,93.23
2018-11-22T18:08:20.961Z,93.58
2018-11-22T18:13:27.685Z,92.92
2018-11-22T18:23:46.992Z,92.55
2018-11-22T18:28:51.597Z,93.20
2018-11-22T18:33:56.444Z,92.72
2018-11-22T18:39:00.955Z,93.03
2018-11-22T18:44:05.523Z,93.15
2018-11-22T18:49:09.851Z,93.72
2018-11-22T18:54:15.485Z,92.92
2018-11-22T18:59:19.847Z,93.29
2018-11-22T19:04:25.342Z,92.85
2018-11-22T19:09:31.377Z,93.08
2018-11-22T19:14:37.372Z,93.10
2018-11-22T19:19:41.852Z,93.31
2018-11-22T19:24:46.219Z,93.02
2018-11-22T19:29:50.869Z,92.95
2018-11-22T19:34:55.839Z,92.69
2018-11-22T19:40:01.409Z,93.12
2018-11-22T19:45:08.933Z,92.55
2018-11-22T19:50:17.372Z,92.44
2018-11-22T19:55:26.569Z,93.16
2018-11-22T20:00:32.144Z,92.92
2018-11-22T20:05:37.878Z,92.74
2018-11-22T20:10:43.468Z,92.31
2018-11-22T20:15:47.914Z,92.53
2018-11-22T20:20:55.605Z,92.42
2018-11-22T20:26:00.076Z,92.61
2018-11-22T20:31:06.487Z,91.97
2018-11-22T20:36:11.498Z,92.28
2018-11-22T20:41:16.374Z,92.21
2018-11-22T20:46:20.764Z,91.88
2018-11-22T20:51:26.376Z,91.59
2018-11-22T20:56:30.777Z,91.73
2018-11-22T21:01:35.034Z,91.39
2018-11-22T21:06:39.299Z,91.67
2018-11-22T21:11:43.793Z,91.32
2018-11-22T21:16:48.429Z,91.57
2018-11-22T21:21:52.707Z,91.49
2018-11-22T21:26:57.085Z,91.54
2018-11-22T21:32:01.458Z,91.06
2018-11-22T21:37:05.991Z,91.01
2018-11-22T21:42:10.562Z,91.38
2018-11-22T21:47:14.934Z,90.79
2018-11-22T21:52:19.559Z,90.74
2018-11-22T21:57:25.468Z,91.55
2018-11-22T22:02:29.907Z,91.30
2018-11-22T22:07:34.486Z,91.43
2018-11-22T22:12:39.315Z,90.93
2018-11-22T22:17:44.550Z,91.27
2018-11-22T22:22:49.272Z,91.59
2018-11-22T22:27:54.965Z,91.32
2018-11-22T22:33:00.909Z,91.45
2018-11-22T22:38:06.017Z,91.74
2018-11-22T22:43:10.711Z,91.79
2018-11-22T22:48:15.259Z,91.80
2018-11-22T22:53:19.600Z,92.25
2018-11-22T22:58:24.156Z,92.41
2018-11-22T23:03:29.244Z,92.19
2018-11-22T23:08:33.641Z,92.80
2018-11-22T23:13:38.458Z,92.69
2018-11-22T23:18:42.789Z,92.39
2018-11-22T23:23:47.082Z,93.08
2018-11-22T23:28:52.424Z,93.15
2018-11-22T23:33:57.764Z,93.33
2018-11-22T23:39:02.115Z,92.74
2018-11-22T23:44:06.732Z,93.87
2018-11-22T23:49:11.058Z,93.22
2018-11-22T23:54:15.303Z,93.26
2018-11-22T23:59:19.645Z,93.36
